This is the latest recevied weather packets stored in our database for station/object W4TTU-1. If no packets are shown the sender has not sent any weather packets the latest 10 day(s).
| Time | Temp. | Humidity | Pressure | Rain* | Wind** | Luminosity | Snow |
|---|---|---|---|---|---|---|---|
| 1777864616 | 22.22° C | 23% | 840.7 hPa | 0 mm | - | - | - |
| 1777863715 | 23.33° C | 24% | 840.6 hPa | 0 mm | - | - | - |
| 1777861914 | 26.11° C | 24% | 840.3 hPa | 0 mm | - | - | - |
| 1777860113 | 27.78° C | 24% | 840.2 hPa | 0 mm | - | - | - |
| 1777859215 | 27.78° C | 24% | 840.3 hPa | 0 mm | - | - | - |
| 1777858312 | 28.33° C | 23% | 840.3 hPa | 0 mm | - | - | - |
| 1777857412 | 28.89° C | 22% | 840.4 hPa | 0 mm | - | - | - |
| 1777856515 | 30° C | 22% | 840.5 hPa | 0 mm | - | - | - |
| 1777854711 | 32.22° C | 22% | 840.6 hPa | 0 mm | - | - | - |
| 1777852909 | 35° C | 22% | 840.8 hPa | 0 mm | - | - | - |
| 1777849308 | 36.11° C | 23% | 841.2 hPa | 0 mm | - | - | - |
| 1777847508 | 36.67° C | 23% | 841.4 hPa | 0 mm | - | - | - |
| 1777846605 | 36.11° C | 24% | 841.5 hPa | 0 mm | - | - | - |
| 1777845705 | 36.11° C | 24% | 841.8 hPa | 0 mm | - | - | - |
| 1777844804 | 35.56° C | 24% | 842 hPa | 0 mm | - | - | - |
| 1777843904 | 35° C | 24% | 842.2 hPa | 0 mm | - | - | - |
| 1777842103 | 33.89° C | 25% | 842.5 hPa | 0 mm | - | - | - |
| 1777840302 | 32.78° C | 25% | 842.9 hPa | 0 mm | - | - | - |
| 1777839401 | 32.78° C | 24% | 843 hPa | 0 mm | - | - | - |
| 1777838501 | 33.33° C | 25% | 843.2 hPa | 0 mm | - | - | - |
| 1777837600 | 32.78° C | 26% | 843.3 hPa | 0 mm | - | - | - |
| 1777836700 | 32.22° C | 27% | 843.4 hPa | 0 mm | - | - | - |
| 1777835799 | 31.11° C | 27% | 843.6 hPa | 0 mm | - | - | - |
| 1777834899 | 31.11° C | 28% | 843.7 hPa | 0 mm | - | - | - |
| 1777833099 | 29.44° C | 28% | 844 hPa | 0 mm | - | - | - |
* Rain since midnight (hover to see other rain measurements)
** Current wind speed in m/s (hover to see current wind gust speed)